Accueil
METAR-TAF:

METAR-TAF

Aéroports :

Base aérienne Volkel-Uden

Uden, Pays-Bas

latitude: 51-39N, longitude: 005-42E, altitude: 22 m

Observation

Le bulletin a été fait il y a 31 minutes, à 01:55 UTC
Vent 3 kt de sud-ouest
Température 15°C
Humidité 94%
Pression 1021 hPa
Visibilité 10 km ou plus
Nuages fragmentés à une hauteur de 3500 ft
Nuages fragmentés à une hauteur de 39000 ft

METAR: EHVK 190155Z AUTO 22003KT 9999 BKN035 BKN390 15/14 Q1021 BLU

Heure: 04:26 (02:26 UTC)

Prévision

Le bulletin a été fait il y a 13 heures et 53 minutes, à 12:33 UTC
Prévision valable du 17 à 13 UTC au 18 à 01 UTC
Vent 4 kt de ouest/nord-ouest
Visibilité 10 km ou plus
Quelques nuages à une hauteur de 4500 ft
Evoluant progressivement
du 17 à 19 UTC au 17 à 21 UTC
Vent 4 kt de sud/sud-ouest

TAF: EHVK 171233Z 1713/1801 30004KT 9999 FEW045 BECMG 1719/1721 21004KT

Observations et prévisions météorologiques de plus de 4000 aéroports (messages METAR et TAF).

Les stations disponibles sont représentées par des disques jaunes et rouges sur la carte.

Passer la souris dessus pour voir le nom de la station.

Cliquer dessus pour voir les observations et prévisions météorologiques.

Pour changer de carte: cliquez sur les boutons verts avec une croix noire pour zoomer, sur le bouton vert avec un tiret pour effectuer un zoom arrière, ou sur les flèches vertes pour les cartes adjacentes.


METAR-TAF: